Time;durP1;ratioP1;P1;durP2;ratioP2;P2;SDS_P1;SDS_P2;PMS_P1;PMS_P2;Temp;Humidity;BMP_temperature;BMP_pressure;BME280_temperature;BME280_humidity;BME280_pressure;Samples;Min_cycle;Max_cycle;Signal;HPM_P1;HPM_P2
2023/10/15 00:00:16;;;;;;;49.90;33.22;;;20.30;99.90;;;;;;5031252;28;20060;-78
2023/10/15 00:03:20;;;;;;;45.42;32.47;;;20.70;99.90;;;;;;5032108;28;20044;-77
2023/10/15 00:06:24;;;;;;;39.83;29.13;;;20.40;99.90;;;;;;5032053;28;20061;-77
2023/10/15 00:09:30;;;;;;;46.25;32.08;;;20.70;99.90;;;;;;5032242;28;20056;-77
2023/10/15 00:12:34;;;;;;;39.70;29.88;;;20.70;99.90;;;;;;5031924;28;20060;-77
2023/10/15 00:15:39;;;;;;;44.20;29.15;;;20.60;99.90;;;;;;5031269;28;20052;-78
2023/10/15 00:18:43;;;;;;;38.08;26.88;;;20.60;99.90;;;;;;5031709;28;20048;-77
2023/10/15 00:21:47;;;;;;;32.75;25.98;;;20.70;99.90;;;;;;5032010;28;20060;-76
2023/10/15 00:24:51;;;;;;;39.47;25.95;;;21.30;99.90;;;;;;5032032;28;20500;-77
2023/10/15 00:27:56;;;;;;;40.58;25.23;;;20.10;99.90;;;;;;5031866;28;20052;-77
2023/10/15 00:31:08;;;;;;;32.20;23.05;;;20.00;99.90;;;;;;5030924;28;20041;-77
2023/10/15 00:34:12;;;;;;;33.33;22.92;;;20.00;99.90;;;;;;5031554;28;20041;-75
2023/10/15 00:37:16;;;;;;;37.42;24.27;;;20.20;99.90;;;;;;5030571;28;20068;-76
2023/10/15 00:40:20;;;;;;;41.45;24.45;;;19.80;99.90;;;;;;5030901;28;20129;-76
2023/10/15 00:43:24;;;;;;;39.08;25.17;;;20.00;99.90;;;;;;5030746;28;20049;-77
2023/10/15 00:46:37;;;;;;;36.50;25.48;;;19.80;99.90;;;;;;5031365;28;20044;-76
2023/10/15 00:49:43;;;;;;;39.30;24.20;;;19.60;99.90;;;;;;5030342;28;20045;-76
2023/10/15 00:52:49;;;;;;;33.45;23.98;;;19.70;99.90;;;;;;5030260;28;20048;-77
2023/10/15 00:55:53;;;;;;;34.42;21.88;;;;;;;;;;5031252;28;20689;-78
2023/10/15 00:59:09;;;;;;;33.92;21.83;;;19.80;99.90;;;;;;5030060;28;20424;-77
2023/10/15 01:02:21;;;;;;;34.08;23.08;;;19.80;99.90;;;;;;5031187;28;20492;-76
2023/10/15 01:05:28;;;;;;;35.63;22.83;;;;;;;;;;5030950;28;20421;-77
2023/10/15 01:08:35;;;;;;;35.55;24.17;;;19.80;99.90;;;;;;5031102;28;20076;-77
2023/10/15 01:15:26;;;;;;;36.92;23.80;;;;;;;;;;4970406;28;20050;-77
2023/10/15 01:18:29;;;;;;;38.33;24.67;;;19.80;99.90;;;;;;4959134;28;20411;-77
2023/10/15 01:21:58;;;;;;;37.55;25.52;;;19.80;99.90;;;;;;5031209;28;20048;-76
2023/10/15 01:25:32;;;;;;;39.20;25.33;;;19.90;99.90;;;;;;5031081;28;20428;-76
2023/10/15 01:28:36;;;;;;;43.03;26.92;;;;;;;;;;5030692;28;20049;-76
2023/10/15 01:31:50;;;;;;;41.55;27.42;;;20.30;99.90;;;;;;5029794;28;20595;-77
2023/10/15 01:34:55;;;;;;;39.42;26.95;;;19.80;99.90;;;;;;5030072;28;20053;-77
2023/10/15 01:38:20;;;;;;;42.00;28.10;;;;;;;;;;5030358;28;20198;-76
2023/10/15 01:41:27;;;;;;;41.28;27.33;;;20.30;99.90;;;;;;5030557;28;20432;-76
2023/10/15 01:44:31;;;;;;;37.00;26.25;;;19.80;99.90;;;;;;5029678;28;20048;-77
2023/10/15 01:47:36;;;;;;;41.22;28.48;;;19.70;99.90;;;;;;5029952;28;20053;-77
2023/10/15 01:50:44;;;;;;;41.42;27.13;;;;;;;;;;5029668;28;20041;-77
2023/10/15 01:53:50;;;;;;;38.17;27.92;;;;;;;;;;5032321;28;20048;-77
2023/10/15 01:56:55;;;;;;;41.00;27.45;;;19.40;99.90;;;;;;5034453;28;20508;-77
2023/10/15 02:00:12;;;;;;;44.25;27.17;;;;;;;;;;5033576;28;20666;-77
2023/10/15 02:03:17;;;;;;;41.08;27.48;;;;;;;;;;5034519;28;20196;-77
2023/10/15 02:06:21;;;;;;;39.72;26.40;;;19.50;99.90;;;;;;5034571;28;20044;-78
2023/10/15 02:09:29;;;;;;;33.88;24.73;;;17.40;99.90;;;;;;5034400;28;20044;-78
2023/10/15 02:12:34;;;;;;;35.58;24.65;;;;;;;;;;5034236;28;20400;-76
2023/10/15 02:15:39;;;;;;;39.13;25.23;;;19.10;99.90;;;;;;5034387;28;20048;-77
2023/10/15 02:18:51;;;;;;;35.42;25.25;;;19.90;99.90;;;;;;5022003;28;20045;-77
2023/10/15 02:21:54;;;;;;;35.25;23.92;;;19.50;99.90;;;;;;5034349;28;20045;-78
2023/10/15 02:24:58;;;;;;;36.25;23.00;;;;;;;;;;5034093;28;20172;-77
2023/10/15 02:28:03;;;;;;;37.47;24.50;;;;;;;;;;5033770;28;20076;-77
2023/10/15 02:34:16;;;;;;;37.83;24.10;;;;;;;;;;5034032;28;20049;-77
2023/10/15 02:37:28;;;;;;;44.63;24.63;;;19.60;99.90;;;;;;5033724;28;20397;-77
2023/10/15 02:40:37;;;;;;;38.08;24.63;;;;;;;;;;5033557;28;20080;-77
2023/10/15 02:43:48;;;;;;;41.15;25.02;;;;;;;;;;5032717;28;20044;-76
2023/10/15 02:47:06;;;;;;;38.28;24.80;;;19.40;99.90;;;;;;5033363;28;20057;-77
2023/10/15 02:50:18;;;;;;;36.40;24.50;;;;;;;;;;5032629;28;20044;-77
2023/10/15 02:53:23;;;;;;;34.72;23.40;;;;;;;;;;5033325;28;20053;-77
2023/10/15 02:56:28;;;;;;;37.65;24.60;;;;;;;;;;5033256;28;20048;-76
2023/10/15 02:59:32;;;;;;;37.58;24.92;;;;;;;;;;5033322;28;20417;-77
2023/10/15 03:02:43;;;;;;;35.03;23.98;;;;;;;;;;5032341;28;20044;-76
2023/10/15 03:05:47;;;;;;;38.50;25.67;;;;;;;;;;5033487;28;20052;-76
2023/10/15 03:08:52;;;;;;;41.80;22.25;;;;;;;;;;5033415;28;20456;-77
2023/10/15 03:11:56;;;;;;;32.53;23.00;;;;;;;;;;5033018;28;20092;-76
2023/10/15 03:15:00;;;;;;;36.15;24.00;;;;;;;;;;5033005;28;20064;-77
2023/10/15 03:18:14;;;;;;;34.75;23.83;;;;;;;;;;5032948;28;20040;-77
2023/10/15 03:21:26;;;;;;;34.05;23.10;;;19.40;99.90;;;;;;5033103;28;20048;-77
2023/10/15 03:24:34;;;;;;;32.13;22.52;;;19.40;99.90;;;;;;5033144;28;20420;-77
2023/10/15 03:27:38;;;;;;;32.50;22.88;;;;;;;;;;5032717;28;20048;-77
2023/10/15 03:30:44;;;;;;;34.08;22.17;;;18.60;99.90;;;;;;5032754;28;20045;-77
2023/10/15 03:37:14;;;;;;;34.50;22.35;;;;;;;;;;5031691;28;20061;-77
2023/10/15 03:43:41;;;;;;;32.15;22.13;;;;;;;;;;5032792;28;20456;-77
2023/10/15 03:46:47;;;;;;;36.15;23.42;;;;;;;;;;5032433;28;20040;-77
2023/10/15 03:49:51;;;;;;;37.10;22.75;;;;;;;;;;5032419;28;20044;-76
2023/10/15 03:52:56;;;;;;;34.78;22.60;;;;;;;;;;5031838;28;20500;-76
2023/10/15 03:56:01;;;;;;;33.70;23.00;;;18.90;99.90;;;;;;5032390;28;20040;-78
2023/10/15 03:59:05;;;;;;;38.53;23.77;;;;;;;;;;5032169;28;20060;-77
2023/10/15 04:02:22;;;;;;;34.80;22.92;;;;;;;;;;5032553;28;20504;-75
2023/10/15 04:05:32;;;;;;;35.92;24.90;;;;;;;;;;5032368;28;20037;-77
2023/10/15 04:08:40;;;;;;;33.88;24.00;;;;;;;;;;5031896;28;20040;-76
2023/10/15 04:11:44;;;;;;;32.83;23.95;;;;;;;;;;5031293;28;20397;-78
2023/10/15 04:14:49;;;;;;;34.05;23.92;;;;;;;;;;5031599;28;20044;-76
2023/10/15 04:17:53;;;;;;;35.33;23.83;;;;;;;;;;5031829;28;20208;-77
2023/10/15 04:20:58;;;;;;;31.48;23.13;;;;;;;;;;5031776;28;20048;-76
2023/10/15 04:24:03;;;;;;;29.70;22.88;;;;;;;;;;5032204;28;20049;-76
2023/10/15 04:27:07;;;;;;;37.28;24.23;;;;;;;;;;5031741;28;20041;-78
2023/10/15 04:30:13;;;;;;;30.08;22.42;;;;;;;;;;5032066;28;20044;-77
2023/10/15 04:33:20;;;;;;;32.75;22.92;;;;;;;;;;5031879;28;20044;-77
2023/10/15 04:36:25;;;;;;;31.38;22.67;;;19.10;99.90;;;;;;5031394;28;20044;-77
2023/10/15 04:39:29;;;;;;;32.92;22.75;;;;;;;;;;5030604;28;20052;-77
2023/10/15 04:42:41;;;;;;;33.40;23.38;;;;;;;;;;5031489;28;20049;-77
2023/10/15 04:45:46;;;;;;;31.13;22.45;;;;;;;;;;5031714;28;20068;-76
2023/10/15 04:48:50;;;;;;;33.63;22.65;;;20.40;99.90;;;;;;5031546;28;20048;-77
2023/10/15 04:51:54;;;;;;;38.25;24.98;;;;;;;;;;5030668;28;20052;-77
2023/10/15 04:54:58;;;;;;;34.88;23.23;;;;;;;;;;5031164;28;20040;-76
2023/10/15 04:58:03;;;;;;;37.92;23.67;;;;;;;;;;5031330;28;20485;-76
2023/10/15 05:01:08;;;;;;;36.72;22.17;;;19.40;99.90;;;;;;5031318;28;20048;-77
2023/10/15 05:04:13;;;;;;;33.38;23.73;;;;;;;;;;5030046;28;20048;-76
2023/10/15 05:07:18;;;;;;;37.95;24.02;;;;;;;;;;5030812;28;20048;-76
2023/10/15 05:10:23;;;;;;;42.10;26.02;;;;;;;;;;5030696;28;20105;-77
2023/10/15 05:13:27;;;;;;;38.30;23.73;;;;;;;;;;5030473;28;20516;-76
2023/10/15 05:16:31;;;;;;;39.47;23.50;;;;;;;;;;5031014;28;20044;-76
2023/10/15 05:19:36;;;;;;;29.88;23.25;;;;;;;;;;5030699;28;20052;-76
2023/10/15 05:22:40;;;;;;;33.80;21.80;;;19.50;99.90;;;;;;5031264;28;20048;-75
2023/10/15 05:25:45;;;;;;;30.98;21.83;;;;;;;;;;5031054;28;20045;-77
2023/10/15 05:28:48;;;;;;;34.38;21.90;;;19.60;99.90;;;;;;5031066;28;20076;-77
2023/10/15 05:31:53;;;;;;;32.28;23.25;;;18.90;99.90;;;;;;5031176;28;20180;-77
2023/10/15 05:34:58;;;;;;;28.90;20.98;;;19.70;99.90;;;;;;5030831;28;20045;-77
2023/10/15 05:38:02;;;;;;;34.47;21.58;;;;;;;;;;5031104;28;20044;-77
2023/10/15 05:41:06;;;;;;;30.17;20.17;;;19.50;99.90;;;;;;5030629;28;20408;-77
2023/10/15 05:44:11;;;;;;;28.73;20.80;;;;;;;;;;5030866;28;20065;-77
2023/10/15 05:47:15;;;;;;;29.63;19.80;;;19.20;99.90;;;;;;5030727;28;20048;-77
2023/10/15 05:50:19;;;;;;;23.77;18.75;;;18.80;99.90;;;;;;5030558;28;20033;-77
2023/10/15 05:53:24;;;;;;;31.05;20.23;;;19.70;99.90;;;;;;5030736;28;20057;-77
2023/10/15 05:56:28;;;;;;;31.52;18.58;;;21.40;99.90;;;;;;5030556;28;20397;-77
2023/10/15 05:59:35;;;;;;;27.90;17.23;;;19.80;99.90;;;;;;5030248;28;20048;-77
2023/10/15 06:02:40;;;;;;;29.23;17.52;;;19.80;99.90;;;;;;5030424;28;20041;-77
2023/10/15 06:05:44;;;;;;;26.70;17.98;;;19.90;99.90;;;;;;5030428;28;20048;-77
2023/10/15 06:08:49;;;;;;;26.05;18.13;;;19.90;99.90;;;;;;5030163;28;20216;-77
2023/10/15 06:11:53;;;;;;;30.00;20.35;;;20.10;99.90;;;;;;5030191;28;20044;-77
2023/10/15 06:14:59;;;;;;;36.63;22.98;;;20.20;99.90;;;;;;5030355;28;20053;-77
2023/10/15 06:18:04;;;;;;;37.90;23.80;;;20.20;99.90;;;;;;5030343;28;20049;-77
2023/10/15 06:21:08;;;;;;;42.85;27.02;;;20.20;99.90;;;;;;5030077;28;20048;-76
2023/10/15 06:24:12;;;;;;;38.25;22.73;;;20.20;99.90;;;;;;5030183;28;20040;-77
2023/10/15 06:27:18;;;;;;;36.53;22.35;;;20.30;99.90;;;;;;5030107;28;20040;-76
2023/10/15 06:30:22;;;;;;;27.85;19.55;;;20.60;99.90;;;;;;5030273;28;20500;-76
2023/10/15 06:33:26;;;;;;;29.60;18.13;;;20.70;99.90;;;;;;5030171;28;20048;-76
2023/10/15 06:36:29;;;;;;;24.67;18.55;;;20.90;99.90;;;;;;5029932;28;20488;-76
2023/10/15 06:39:34;;;;;;;26.95;17.88;;;21.30;99.90;;;;;;5032047;28;20064;-76
2023/10/15 06:42:38;;;;;;;32.63;20.95;;;21.30;99.90;;;;;;5033876;28;20397;-76
2023/10/15 06:45:42;;;;;;;31.73;20.50;;;21.30;99.90;;;;;;5033780;28;20040;-76
2023/10/15 06:48:46;;;;;;;34.08;21.42;;;21.30;99.90;;;;;;5033745;28;20060;-77
2023/10/15 06:51:50;;;;;;;36.65;21.73;;;21.30;99.90;;;;;;5033717;28;20044;-76
2023/10/15 06:54:54;;;;;;;28.20;17.27;;;21.30;99.90;;;;;;5033542;28;20408;-76
2023/10/15 06:57:58;;;;;;;28.15;17.23;;;21.30;99.90;;;;;;5032957;28;20048;-76
2023/10/15 07:01:02;;;;;;;22.38;15.02;;;21.30;99.90;;;;;;5033020;28;20057;-76
2023/10/15 07:04:07;;;;;;;28.48;15.82;;;21.20;99.90;;;;;;5033229;28;20508;-76
2023/10/15 07:07:11;;;;;;;21.48;14.20;;;21.30;99.90;;;;;;5032773;28;20048;-76
2023/10/15 07:10:15;;;;;;;23.30;14.48;;;21.30;99.90;;;;;;5033169;28;20044;-77
2023/10/15 07:13:19;;;;;;;27.30;13.75;;;21.90;99.90;;;;;;5032811;28;20512;-76
2023/10/15 07:16:24;;;;;;;32.13;15.93;;;22.00;99.90;;;;;;5032759;28;20056;-77
2023/10/15 07:19:28;;;;;;;30.77;14.80;;;22.40;99.90;;;;;;5033109;28;20068;-77
2023/10/15 07:22:32;;;;;;;25.83;14.85;;;22.40;99.90;;;;;;5032882;28;20049;-77
2023/10/15 07:25:36;;;;;;;29.75;18.58;;;22.50;99.90;;;;;;5033113;28;20048;-76
2023/10/15 07:28:39;;;;;;;40.95;19.05;;;22.50;99.90;;;;;;5033158;28;20386;-76
2023/10/15 07:31:43;;;;;;;31.85;18.08;;;22.40;99.90;;;;;;5032934;28;20060;-77
2023/10/15 07:34:47;;;;;;;30.45;15.88;;;22.40;99.90;;;;;;5032545;28;20076;-76
2023/10/15 07:37:52;;;;;;;26.17;15.13;;;22.40;99.90;;;;;;5032409;28;20048;-76
2023/10/15 07:40:56;;;;;;;27.90;17.15;;;22.50;99.90;;;;;;5032242;28;20076;-75
2023/10/15 07:44:02;;;;;;;28.75;17.30;;;22.50;99.90;;;;;;5032728;28;20060;-76
2023/10/15 07:47:06;;;;;;;51.60;26.00;;;22.50;99.90;;;;;;5032187;28;20049;-76
2023/10/15 07:50:13;;;;;;;40.85;25.13;;;22.40;99.90;;;;;;5030763;28;20064;-76
2023/10/15 07:53:17;;;;;;;39.45;23.83;;;22.40;99.90;;;;;;5032392;28;20504;-76
2023/10/15 07:56:22;;;;;;;38.65;20.83;;;22.40;99.90;;;;;;5032217;28;20041;-75
2023/10/15 07:59:26;;;;;;;38.08;21.13;;;22.40;99.90;;;;;;5031915;28;20431;-76
2023/10/15 08:02:30;;;;;;;37.97;21.30;;;22.40;99.90;;;;;;5032085;28;20458;-76
2023/10/15 08:05:36;;;;;;;33.28;20.13;;;22.40;99.90;;;;;;5031861;28;20401;-76
2023/10/15 08:08:42;;;;;;;42.17;20.00;;;22.40;99.90;;;;;;5032064;28;20044;-76
2023/10/15 08:11:46;;;;;;;29.95;15.90;;;22.40;99.90;;;;;;5032001;28;20053;-76
2023/10/15 08:14:50;;;;;;;31.75;17.38;;;22.70;99.90;;;;;;5031828;28;20056;-76
2023/10/15 08:17:56;;;;;;;22.15;15.30;;;22.70;99.90;;;;;;5031763;28;20052;-76
2023/10/15 08:21:00;;;;;;;32.28;15.60;;;23.00;99.90;;;;;;5031853;28;20052;-76
2023/10/15 08:24:05;;;;;;;20.27;11.98;;;23.40;99.90;;;;;;5031737;28;20397;-76
2023/10/15 08:27:09;;;;;;;29.48;12.50;;;23.50;99.70;;;;;;5031667;28;20053;-75
2023/10/15 08:30:15;;;;;;;26.77;14.43;;;23.60;99.30;;;;;;5031781;28;20048;-76
2023/10/15 08:33:19;;;;;;;22.35;12.65;;;23.60;99.30;;;;;;5031590;28;20044;-76
2023/10/15 08:36:23;;;;;;;30.38;14.32;;;23.60;99.00;;;;;;5031666;28;20504;-76
2023/10/15 08:39:27;;;;;;;23.38;13.65;;;24.00;98.80;;;;;;5031291;28;20048;-76
2023/10/15 08:42:42;;;;;;;25.95;14.13;;;24.00;98.70;;;;;;5031643;28;20056;-76
2023/10/15 08:45:48;;;;;;;26.17;13.57;;;24.20;98.50;;;;;;5031541;28;20500;-76
2023/10/15 08:48:52;;;;;;;24.02;13.65;;;24.50;98.40;;;;;;5031223;28;20040;-76
2023/10/15 08:51:58;;;;;;;20.17;11.60;;;24.80;98.00;;;;;;5031037;28;20064;-76
2023/10/15 08:55:06;;;;;;;15.18;8.93;;;25.10;97.60;;;;;;5030903;28;20052;-76
2023/10/15 08:58:10;;;;;;;14.55;8.00;;;25.30;97.40;;;;;;5031252;28;20500;-76
2023/10/15 09:01:15;;;;;;;13.00;7.38;;;25.40;97.10;;;;;;5030548;28;20052;-76
2023/10/15 09:04:19;;;;;;;18.67;7.07;;;25.50;97.10;;;;;;5030979;28;20084;-76
2023/10/15 09:07:24;;;;;;;10.02;6.25;;;25.40;96.80;;;;;;5030859;28;20587;-76
2023/10/15 09:10:29;;;;;;;16.48;6.10;;;25.30;96.80;;;;;;5031105;28;20052;-76
2023/10/15 09:13:36;;;;;;;21.88;6.70;;;25.10;96.80;;;;;;5030656;28;20127;-76
2023/10/15 09:16:47;;;;;;;17.65;6.90;;;25.10;96.90;;;;;;5030148;28;20044;-76
2023/10/15 09:19:52;;;;;;;13.40;5.97;;;25.30;96.90;;;;;;5030938;28;20524;-76
2023/10/15 09:22:57;;;;;;;10.70;5.70;;;25.50;96.30;;;;;;5031064;28;20041;-76
2023/10/15 09:26:02;;;;;;;10.52;5.97;;;25.60;96.60;;;;;;5030986;28;20045;-76
2023/10/15 09:29:20;;;;;;;12.15;5.80;;;25.70;96.10;;;;;;5031003;28;20053;-76
2023/10/15 09:32:24;;;;;;;13.35;5.90;;;25.80;95.90;;;;;;5030547;28;20045;-76
2023/10/15 09:35:31;;;;;;;13.48;5.78;;;25.50;95.60;;;;;;5030744;28;20044;-75
2023/10/15 09:38:36;;;;;;;15.98;6.15;;;25.40;95.60;;;;;;5030384;28;20045;-75
2023/10/15 09:41:41;;;;;;;14.20;6.80;;;25.30;95.90;;;;;;5030403;28;20053;-75
2023/10/15 09:44:47;;;;;;;18.20;6.30;;;25.20;95.90;;;;;;5030478;28;20044;-76
2023/10/15 09:47:57;;;;;;;10.55;5.68;;;25.00;95.90;;;;;;5030451;28;20429;-75
2023/10/15 09:51:02;;;;;;;12.10;5.57;;;25.10;96.20;;;;;;5030471;28;20049;-75
2023/10/15 09:54:14;;;;;;;14.98;5.47;;;25.30;96.10;;;;;;5030613;28;20044;-76
2023/10/15 09:57:21;;;;;;;10.77;5.32;;;25.70;95.80;;;;;;5030443;28;20469;-75
2023/10/15 10:00:46;;;;;;;16.38;5.97;;;26.10;95.20;;;;;;5030411;28;20121;-76
2023/10/15 10:04:40;;;;;;;18.33;9.55;;;26.40;94.60;;;;;;5030310;28;20045;-75
2023/10/15 10:08:09;;;;;;;16.60;6.07;;;26.40;94.50;;;;;;5017475;28;20050;-75
2023/10/15 10:11:40;;;;;;;8.73;5.28;;;26.80;94.00;;;;;;5030243;28;20068;-75
2023/10/15 10:15:02;;;;;;;15.50;6.63;;;26.90;93.70;;;;;;5032885;28;20056;-75
2023/10/15 10:18:07;;;;;;;16.60;6.57;;;27.30;92.70;;;;;;5034232;28;20056;-75
2023/10/15 10:21:16;;;;;;;15.32;5.60;;;27.40;92.30;;;;;;5034086;28;20049;-75
2023/10/15 10:24:20;;;;;;;14.77;5.55;;;27.50;92.60;;;;;;5034141;28;20060;-76
2023/10/15 10:27:25;;;;;;;13.55;5.25;;;27.50;92.00;;;;;;5033962;28;20418;-75
2023/10/15 10:30:29;;;;;;;12.77;5.95;;;27.50;92.30;;;;;;5033590;28;20511;-75
2023/10/15 10:33:50;;;;;;;22.73;5.30;;;27.50;92.00;;;;;;5033512;28;20477;-75
2023/10/15 10:36:53;;;;;;;16.25;5.53;;;27.50;91.80;;;;;;5033817;28;20604;-74
2023/10/15 10:40:00;;;;;;;13.40;5.22;;;27.60;91.80;;;;;;5033459;28;20056;-75
2023/10/15 10:43:16;;;;;;;11.75;5.13;;;27.60;92.10;;;;;;5033818;28;20052;-75
2023/10/15 10:46:21;;;;;;;12.73;5.20;;;27.60;91.50;;;;;;5033441;28;20041;-75
2023/10/15 10:49:37;;;;;;;5.78;4.35;;;27.70;91.80;;;;;;5033645;28;20532;-76
2023/10/15 10:52:43;;;;;;;14.50;4.88;;;27.80;91.80;;;;;;5033609;28;20113;-77
2023/10/15 10:56:03;;;;;;;14.63;5.35;;;27.80;91.80;;;;;;5033512;28;20069;-76
2023/10/15 10:59:14;;;;;;;22.48;11.27;;;27.70;91.70;;;;;;5033678;28;20064;-76
2023/10/15 11:02:20;;;;;;;19.20;5.65;;;26.00;91.40;;;;;;5033385;28;20080;-76
2023/10/15 11:05:25;;;;;;;12.82;5.10;;;27.50;92.20;;;;;;5032444;28;20052;-76
2023/10/15 11:08:29;;;;;;;17.60;5.30;;;27.50;92.20;;;;;;5033428;28;20041;-76
2023/10/15 11:11:33;;;;;;;17.05;5.68;;;27.50;92.10;;;;;;5033562;28;20109;-77
2023/10/15 11:14:38;;;;;;;21.80;5.63;;;27.40;92.40;;;;;;5032444;28;20053;-76
2023/10/15 11:17:57;;;;;;;25.77;6.72;;;27.30;92.70;;;;;;5033823;28;20052;-75
2023/10/15 11:21:02;;;;;;;17.13;6.05;;;27.20;92.60;;;;;;5033046;28;20072;-75
2023/10/15 11:24:09;;;;;;;34.10;6.57;;;27.10;92.90;;;;;;5033037;28;20044;-76
2023/10/15 11:27:13;;;;;;;10.02;4.72;;;27.00;93.10;;;;;;5033199;28;20053;-75
2023/10/15 11:30:18;;;;;;;25.27;5.65;;;27.00;92.50;;;;;;5032794;28;20428;-76
2023/10/15 11:33:23;;;;;;;14.15;5.30;;;26.90;92.70;;;;;;5032963;28;20053;-76
2023/10/15 11:36:48;;;;;;;29.60;6.82;;;26.30;93.00;;;;;;5032551;28;20043;-77
2023/10/15 11:39:53;;;;;;;12.68;5.95;;;26.90;92.40;;;;;;5032835;28;20508;-75
2023/10/15 11:42:56;;;;;;;30.02;8.05;;;26.90;92.60;;;;;;5032844;28;20057;-76
2023/10/15 11:46:07;;;;;;;19.50;5.75;;;26.80;92.40;;;;;;5032668;28;20048;-76
2023/10/15 11:49:11;;;;;;;;;;;26.80;92.40;;;;;;5032668;28;20048;-76
2023/10/15 11:52:18;;;;;;;17.60;5.85;;;26.80;92.60;;;;;;5032426;28;19913;-75
2023/10/15 11:55:22;;;;;;;15.68;5.22;;;26.70;92.40;;;;;;5032233;28;20385;-76
2023/10/15 11:58:31;;;;;;;17.67;6.13;;;26.70;92.50;;;;;;5032520;28;20056;-76
2023/10/15 12:01:35;;;;;;;19.30;7.15;;;26.70;92.60;;;;;;5032192;28;20060;-76
2023/10/15 12:04:39;;;;;;;19.48;6.97;;;26.70;92.90;;;;;;5032066;28;20500;-76
2023/10/15 12:07:43;;;;;;;11.13;5.32;;;26.60;92.40;;;;;;5032283;28;20175;-76
2023/10/15 12:10:48;;;;;;;11.68;5.60;;;27.30;92.80;;;;;;5032163;28;20037;-76
2023/10/15 12:13:53;;;;;;;12.93;5.90;;;26.60;93.00;;;;;;5031862;28;20056;-76
2023/10/15 12:16:57;;;;;;;10.40;4.97;;;26.60;93.00;;;;;;5032086;28;20048;-76
2023/10/15 12:20:03;;;;;;;11.25;5.60;;;26.60;92.90;;;;;;5032081;28;20064;-76
2023/10/15 12:23:08;;;;;;;10.77;5.47;;;26.60;92.90;;;;;;5030950;28;20492;-76
2023/10/15 12:26:12;;;;;;;10.45;5.85;;;26.60;93.20;;;;;;5031855;28;20052;-76
2023/10/15 12:29:17;;;;;;;18.13;5.35;;;26.50;93.10;;;;;;5031851;28;20044;-76
2023/10/15 12:32:21;;;;;;;21.08;5.25;;;26.50;93.50;;;;;;5031503;28;20048;-75
2023/10/15 12:35:27;;;;;;;23.52;6.05;;;26.40;93.50;;;;;;5031631;28;20527;-77
2023/10/15 12:38:31;;;;;;;18.60;5.45;;;26.40;93.40;;;;;;5031680;28;20048;-75
2023/10/15 12:41:38;;;;;;;14.93;6.53;;;26.30;93.60;;;;;;5031593;28;20052;-77
2023/10/15 12:44:44;;;;;;;17.60;6.55;;;26.30;93.20;;;;;;5031248;28;20081;-76
2023/10/15 12:47:48;;;;;;;16.95;8.57;;;26.30;93.50;;;;;;5031242;28;20401;-75
2023/10/15 12:50:52;;;;;;;36.10;10.02;;;26.30;93.70;;;;;;5031222;28;20044;-76
2023/10/15 12:53:56;;;;;;;59.15;42.15;;;26.30;93.80;;;;;;5031554;28;20052;-75
2023/10/15 12:57:03;;;;;;;14.75;8.55;;;26.60;93.90;;;;;;5031287;28;20385;-77
2023/10/15 13:00:16;;;;;;;22.45;11.55;;;26.20;94.00;;;;;;5030618;28;20064;-76
2023/10/15 13:03:20;;;;;;;18.73;7.85;;;26.20;94.10;;;;;;5029760;28;20044;-75
2023/10/15 13:06:25;;;;;;;14.80;6.85;;;26.20;94.20;;;;;;5029367;28;20056;-77
2023/10/15 13:09:32;;;;;;;20.27;7.80;;;26.20;94.40;;;;;;5030581;28;20048;-77
2023/10/15 13:12:37;;;;;;;22.05;6.93;;;26.20;94.80;;;;;;5030940;28;20082;-77
2023/10/15 13:15:41;;;;;;;16.80;6.55;;;26.10;94.80;;;;;;5030863;28;20048;-76
2023/10/15 13:18:46;;;;;;;13.65;6.53;;;26.00;95.30;;;;;;5030865;28;20040;-76
2023/10/15 13:21:51;;;;;;;12.65;6.72;;;26.00;95.40;;;;;;5030787;28;20519;-76
2023/10/15 13:24:55;;;;;;;13.68;6.63;;;25.90;95.70;;;;;;5030191;28;20389;-76
2023/10/15 13:27:59;;;;;;;12.93;6.68;;;25.90;95.80;;;;;;5030617;28;20044;-74
2023/10/15 13:31:02;;;;;;;15.55;7.28;;;25.70;95.60;;;;;;5030571;28;20040;-75
2023/10/15 13:34:07;;;;;;;20.80;6.70;;;25.70;95.60;;;;;;5030780;28;20040;-75
2023/10/15 13:37:12;;;;;;;12.55;6.30;;;25.80;95.80;;;;;;5030570;28;20048;-75
2023/10/15 13:40:18;;;;;;;15.82;6.10;;;25.70;95.40;;;;;;5029777;28;20041;-75
2023/10/15 13:43:22;;;;;;;12.23;6.10;;;25.80;95.90;;;;;;5030540;28;20052;-75
2023/10/15 13:46:25;;;;;;;16.40;6.43;;;25.80;96.10;;;;;;5030731;28;20085;-75
2023/10/15 13:49:30;;;;;;;15.82;6.97;;;25.80;96.20;;;;;;5034541;28;20112;-75
2023/10/15 13:52:38;;;;;;;16.98;6.15;;;25.80;95.90;;;;;;5034524;28;20052;-75
2023/10/15 13:55:42;;;;;;;12.65;6.15;;;25.80;96.00;;;;;;5034291;28;20048;-75
2023/10/15 13:58:46;;;;;;;12.63;6.50;;;25.70;96.20;;;;;;5034681;28;20036;-75
2023/10/15 14:01:51;;;;;;;12.02;6.43;;;25.50;96.10;;;;;;5034322;28;20061;-75
2023/10/15 14:04:55;;;;;;;15.13;6.43;;;25.50;96.30;;;;;;5034303;28;20385;-76
2023/10/15 14:07:59;;;;;;;11.98;6.55;;;25.30;96.40;;;;;;5034451;28;20052;-76
2023/10/15 14:11:03;;;;;;;15.73;6.82;;;25.30;96.30;;;;;;5034495;28;20041;-75
2023/10/15 14:14:07;;;;;;;16.15;6.72;;;25.30;96.30;;;;;;5034003;28;20060;-75
2023/10/15 14:17:11;;;;;;;10.57;6.80;;;25.30;96.40;;;;;;5034207;28;20045;-75
2023/10/15 14:20:15;;;;;;;16.30;5.93;;;25.30;96.50;;;;;;5033858;28;20048;-75
2023/10/15 14:23:20;;;;;;;16.83;6.40;;;25.30;96.70;;;;;;5034250;28;20044;-75
2023/10/15 14:26:24;;;;;;;19.55;7.00;;;25.30;96.90;;;;;;5034069;28;20040;-76
2023/10/15 14:29:28;;;;;;;16.15;6.88;;;25.40;97.20;;;;;;5033893;28;20393;-75
2023/10/15 14:32:32;;;;;;;14.60;6.88;;;25.40;97.50;;;;;;5033745;28;20389;-74
2023/10/15 14:35:36;;;;;;;12.32;6.38;;;25.40;97.40;;;;;;5033838;28;20056;-75
2023/10/15 14:38:40;;;;;;;12.02;5.97;;;25.30;97.30;;;;;;5033562;28;20127;-74
2023/10/15 14:41:44;;;;;;;18.30;6.55;;;25.30;97.50;;;;;;5033464;28;20072;-74
2023/10/15 14:44:50;;;;;;;13.15;6.70;;;25.30;97.60;;;;;;5033691;28;20056;-75
2023/10/15 14:47:54;;;;;;;12.77;6.40;;;25.30;97.60;;;;;;5033708;28;20473;-75
2023/10/15 14:51:00;;;;;;;14.10;6.32;;;25.30;97.30;;;;;;5033433;28;20045;-75
2023/10/15 14:54:05;;;;;;;18.13;7.07;;;25.30;97.50;;;;;;5033699;28;20052;-74
2023/10/15 14:57:13;;;;;;;20.00;7.20;;;25.30;97.50;;;;;;5032432;28;20048;-74
2023/10/15 15:00:18;;;;;;;11.27;6.07;;;25.20;97.70;;;;;;5032874;28;20044;-74
2023/10/15 15:03:21;;;;;;;17.08;7.07;;;25.10;97.90;;;;;;5033535;28;20045;-75
2023/10/15 15:06:25;;;;;;;19.02;6.90;;;25.10;98.00;;;;;;5033280;28;20064;-74
2023/10/15 15:09:29;;;;;;;12.30;6.35;;;25.10;98.10;;;;;;5033348;28;20037;-75
2023/10/15 15:12:33;;;;;;;24.15;7.40;;;25.10;98.20;;;;;;5033062;28;20045;-76
2023/10/15 15:15:42;;;;;;;15.48;6.20;;;25.10;98.30;;;;;;5032976;28;20053;-76
2023/10/15 15:18:47;;;;;;;13.65;6.78;;;25.10;98.50;;;;;;5033169;28;20048;-75
2023/10/15 15:21:51;;;;;;;14.20;6.72;;;25.00;98.40;;;;;;5032831;28;20057;-75
2023/10/15 15:24:55;;;;;;;18.92;7.80;;;25.10;98.60;;;;;;5032832;28;20040;-75
2023/10/15 15:27:59;;;;;;;13.30;6.43;;;25.00;98.70;;;;;;5032825;28;20068;-75
2023/10/15 15:31:06;;;;;;;11.98;6.60;;;25.00;98.70;;;;;;5032916;28;20048;-75
2023/10/15 15:34:10;;;;;;;16.27;6.55;;;25.00;98.90;;;;;;5032940;28;20108;-75
2023/10/15 15:37:14;;;;;;;13.10;7.07;;;25.00;99.10;;;;;;5032777;28;20544;-75
2023/10/15 15:40:19;;;;;;;18.08;9.77;;;25.00;99.30;;;;;;5032678;28;20048;-74
2023/10/15 15:43:24;;;;;;;16.45;8.73;;;24.90;99.40;;;;;;5032673;28;20052;-75
2023/10/15 15:46:28;;;;;;;18.70;8.35;;;24.80;99.50;;;;;;5032585;28;20044;-75
2023/10/15 15:49:32;;;;;;;21.35;8.73;;;24.80;99.60;;;;;;5032372;28;20049;-75
2023/10/15 15:52:37;;;;;;;17.65;7.90;;;24.70;99.60;;;;;;5032213;28;20433;-75
2023/10/15 15:55:41;;;;;;;17.73;8.00;;;24.70;99.70;;;;;;5032010;28;20045;-75
2023/10/15 15:58:45;;;;;;;25.25;9.40;;;24.60;99.80;;;;;;5032339;28;20187;-76
2023/10/15 16:01:51;;;;;;;14.32;7.55;;;24.60;99.90;;;;;;5032080;28;20052;-75
2023/10/15 16:04:55;;;;;;;17.73;8.07;;;24.60;99.90;;;;;;5032057;28;20048;-75
2023/10/15 16:08:01;;;;;;;20.40;8.20;;;24.50;99.90;;;;;;5032293;28;20040;-76
2023/10/15 16:11:05;;;;;;;16.00;8.98;;;24.50;99.90;;;;;;5031208;28;20512;-75
2023/10/15 16:14:09;;;;;;;20.20;7.65;;;24.50;99.90;;;;;;5031475;28;20088;-75
2023/10/15 16:17:15;;;;;;;19.60;7.72;;;24.50;99.90;;;;;;5031747;28;20528;-75
2023/10/15 16:20:20;;;;;;;16.42;7.60;;;24.40;99.90;;;;;;5031575;28;20064;-75
2023/10/15 16:23:24;;;;;;;17.23;8.30;;;24.40;99.90;;;;;;5031814;28;20053;-75
2023/10/15 16:26:27;;;;;;;22.98;7.93;;;24.40;99.90;;;;;;5031743;28;20044;-75